Time;durP1;ratioP1;P1;durP2;ratioP2;P2;SDS_P1;SDS_P2;PMS_P1;PMS_P2;Temp;Humidity;BMP_temperature;BMP_pressure;BME280_temperature;BME280_humidity;BME280_pressure;Samples;Min_cycle;Max_cycle;Signal;HPM_P1;HPM_P2
2022/11/27 00:01:48;;;;;;;5.90;2.97;;;6.40;99.90;;;;;;5070689;28;20044;-75
2022/11/27 00:04:14;;;;;;;7.47;3.22;;;6.50;99.90;;;;;;5071343;28;20555;-75
2022/11/27 00:06:42;;;;;;;9.52;3.50;;;6.40;99.90;;;;;;5054149;28;20399;-75
2022/11/27 00:09:11;;;;;;;7.30;3.22;;;6.40;99.90;;;;;;5069471;28;20057;-77
2022/11/27 00:11:39;;;;;;;8.05;3.25;;;6.50;99.90;;;;;;5070856;28;20037;-75
2022/11/27 00:14:05;;;;;;;9.80;3.53;;;6.40;99.90;;;;;;5053874;28;20464;-76
2022/11/27 00:16:31;;;;;;;9.48;3.70;;;6.40;99.90;;;;;;5053746;28;20476;-74
2022/11/27 00:18:57;;;;;;;7.88;3.20;;;6.50;99.90;;;;;;5050594;28;20156;-76
2022/11/27 00:21:28;;;;;;;8.00;3.35;;;6.50;99.90;;;;;;5050634;28;20167;-75
2022/11/27 00:23:57;;;;;;;8.27;3.22;;;6.40;99.90;;;;;;5052343;28;20052;-75
2022/11/27 00:26:23;;;;;;;7.22;2.88;;;6.50;99.90;;;;;;5050782;28;20046;-75
2022/11/27 00:28:49;;;;;;;8.82;3.67;;;6.40;99.90;;;;;;5049879;28;20052;-75
2022/11/27 00:31:28;;;;;;;6.43;3.45;;;6.50;99.90;;;;;;5050346;28;20037;-76
2022/11/27 00:33:55;;;;;;;8.80;3.92;;;6.50;99.90;;;;;;5050192;28;20052;-75
2022/11/27 00:36:21;;;;;;;7.13;3.38;;;6.50;99.90;;;;;;5054795;28;20519;-75
2022/11/27 00:38:47;;;;;;;8.15;3.35;;;6.40;99.90;;;;;;5070696;28;20088;-75
2022/11/27 00:41:18;;;;;;;7.40;3.35;;;6.40;99.90;;;;;;5052901;28;20141;-76
2022/11/27 00:43:45;;;;;;;7.65;3.28;;;6.40;99.90;;;;;;5070364;28;20048;-75
2022/11/27 00:46:14;;;;;;;;;;;6.30;99.90;;;;;;5062767;28;20093;-75
2022/11/27 00:48:40;;;;;;;11.48;4.18;;;6.30;99.90;;;;;;5062951;28;19963;-76
2022/11/27 00:51:08;;;;;;;7.93;3.55;;;6.30;99.90;;;;;;5039459;28;20126;-75
2022/11/27 00:53:34;;;;;;;7.47;3.97;;;6.20;99.90;;;;;;5034654;28;20041;-74
2022/11/27 00:56:00;;;;;;;6.45;3.72;;;6.20;99.90;;;;;;5070224;28;20040;-75
2022/11/27 00:58:26;;;;;;;7.05;3.45;;;6.20;99.90;;;;;;5069607;28;20041;-75
2022/11/27 01:00:59;;;;;;;8.68;3.80;;;6.10;99.90;;;;;;5057561;28;20067;-75
2022/11/27 01:03:26;;;;;;;6.55;3.20;;;6.10;99.90;;;;;;5050039;28;20036;-75
2022/11/27 01:05:52;;;;;;;7.43;3.47;;;6.10;99.90;;;;;;5050127;28;20473;-75
2022/11/27 01:08:18;;;;;;;7.55;3.78;;;6.10;99.90;;;;;;5049619;28;20095;-74
2022/11/27 01:10:55;;;;;;;8.00;3.60;;;6.10;99.90;;;;;;5049931;28;20840;-75
2022/11/27 01:13:31;;;;;;;7.10;3.65;;;6.10;99.90;;;;;;5049596;28;20127;-75
2022/11/27 01:16:07;;;;;;;7.25;3.30;;;6.00;99.90;;;;;;5050408;28;20056;-75
2022/11/27 01:18:34;;;;;;;10.52;4.47;;;6.00;99.90;;;;;;5049805;28;20186;-75
2022/11/27 01:21:01;;;;;;;12.23;4.22;;;6.00;99.90;;;;;;5033011;28;20044;-75
2022/11/27 01:23:27;;;;;;;9.98;4.05;;;6.00;99.90;;;;;;5066041;28;20045;-75
2022/11/27 01:25:53;;;;;;;;;;;6.00;99.90;;;;;;5066471;28;20135;-75
2022/11/27 01:28:22;;;;;;;10.48;4.72;;;6.00;99.90;;;;;;5051356;28;20412;-75
2022/11/27 01:30:49;;;;;;;9.38;4.38;;;6.00;99.90;;;;;;5058453;28;20044;-75
2022/11/27 01:33:15;;;;;;;10.02;4.47;;;6.00;99.90;;;;;;5068840;28;20048;-75
2022/11/27 01:35:40;;;;;;;14.05;5.05;;;6.00;99.90;;;;;;5069935;28;20419;-75
2022/11/27 01:38:06;;;;;;;7.78;4.15;;;6.00;99.90;;;;;;5052809;28;20082;-75
2022/11/27 01:40:32;;;;;;;8.27;3.88;;;6.00;99.90;;;;;;5069420;28;20040;-75
2022/11/27 01:42:57;;;;;;;6.47;3.85;;;6.00;99.90;;;;;;5053141;28;20052;-75
2022/11/27 01:45:23;;;;;;;8.15;3.78;;;5.90;99.90;;;;;;5049805;28;20080;-75
2022/11/27 01:47:56;;;;;;;8.13;3.85;;;5.90;99.90;;;;;;5070337;28;20048;-75
2022/11/27 01:50:36;;;;;;;6.47;3.33;;;5.90;99.90;;;;;;5065176;28;20049;-77
2022/11/27 01:53:09;;;;;;;6.35;3.75;;;5.90;99.90;;;;;;5060966;28;20106;-76
2022/11/27 01:55:41;;;;;;;5.95;3.22;;;5.80;99.90;;;;;;5053714;28;20052;-75
2022/11/27 01:58:10;;;;;;;6.47;3.85;;;5.80;99.90;;;;;;5067399;28;20041;-75
2022/11/27 02:00:38;;;;;;;8.98;3.88;;;5.80;99.90;;;;;;5051265;28;20473;-74
2022/11/27 02:03:03;;;;;;;12.15;4.20;;;5.80;99.90;;;;;;5047414;28;20048;-74
2022/11/27 02:05:30;;;;;;;11.70;4.30;;;5.80;99.90;;;;;;5056539;28;20048;-74
2022/11/27 02:07:58;;;;;;;6.82;3.83;;;5.80;99.90;;;;;;5063558;28;20044;-74
2022/11/27 02:10:43;;;;;;;11.20;4.68;;;5.80;99.90;;;;;;5070053;28;20381;-68
2022/11/27 02:13:15;;;;;;;11.65;4.88;;;5.80;99.90;;;;;;5052367;28;20094;-69
2022/11/27 02:15:44;;;;;;;11.00;4.75;;;5.80;99.90;;;;;;5040543;28;20036;-68
2022/11/27 02:18:20;;;;;;;12.02;4.97;;;5.90;99.90;;;;;;5057932;28;20069;-68
2022/11/27 02:21:08;;;;;;;9.85;4.47;;;5.90;99.90;;;;;;5054605;28;20037;-68
2022/11/27 02:23:54;;;;;;;11.20;4.78;;;5.90;99.90;;;;;;5066380;28;20045;-68
2022/11/27 02:26:41;;;;;;;8.80;4.25;;;5.90;99.90;;;;;;5066761;28;20051;-68
2022/11/27 02:29:09;;;;;;;11.43;3.87;;;5.90;99.90;;;;;;5052276;28;20450;-68
2022/11/27 02:31:50;;;;;;;9.57;4.47;;;5.90;99.90;;;;;;5053862;28;20623;-69
2022/11/27 02:34:27;;;;;;;11.18;4.60;;;5.90;99.90;;;;;;5057301;28;20043;-68
2022/11/27 02:37:02;;;;;;;9.70;4.53;;;5.90;99.90;;;;;;5057050;28;20049;-69
2022/11/27 02:39:36;;;;;;;11.57;4.60;;;5.90;99.90;;;;;;5055086;28;20053;-68
2022/11/27 02:42:11;;;;;;;7.90;4.50;;;6.00;99.90;;;;;;5071931;28;20044;-68
2022/11/27 02:44:43;;;;;;;10.95;4.75;;;6.00;99.90;;;;;;5054344;28;20047;-69
2022/11/27 02:47:10;;;;;;;9.23;4.55;;;6.00;99.90;;;;;;5054040;28;20036;-68
2022/11/27 02:49:39;;;;;;;10.25;4.30;;;6.10;99.90;;;;;;5069521;28;20044;-69
2022/11/27 02:52:05;;;;;;;10.63;4.43;;;6.10;99.90;;;;;;5051426;28;20124;-68
2022/11/27 02:54:32;;;;;;;8.30;4.78;;;6.10;99.90;;;;;;5036892;28;20037;-68
2022/11/27 02:57:00;;;;;;;9.25;4.57;;;6.10;99.90;;;;;;5051053;28;20055;-68
2022/11/27 02:59:30;;;;;;;8.40;4.10;;;6.20;99.90;;;;;;5051626;28;20507;-68
2022/11/27 03:01:59;;;;;;;8.52;3.70;;;6.20;99.90;;;;;;5062972;28;20079;-68
2022/11/27 03:04:33;;;;;;;7.85;4.00;;;6.20;99.90;;;;;;5060116;28;20063;-68
2022/11/27 03:07:04;;;;;;;9.00;4.65;;;6.20;99.90;;;;;;5055007;28;20357;-68
2022/11/27 03:09:43;;;;;;;7.22;3.80;;;6.20;99.90;;;;;;5070064;28;20044;-68
2022/11/27 03:12:11;;;;;;;9.73;4.28;;;6.30;99.90;;;;;;5073329;28;20052;-74
2022/11/27 03:14:39;;;;;;;8.18;3.83;;;6.20;99.90;;;;;;5067548;28;20051;-75
2022/11/27 03:17:24;;;;;;;9.80;4.15;;;6.20;99.90;;;;;;5063846;28;20066;-75
2022/11/27 03:20:17;;;;;;;8.48;3.85;;;6.30;99.90;;;;;;5053912;28;20518;-75
2022/11/27 03:22:43;;;;;;;8.65;4.13;;;6.30;99.90;;;;;;5043668;28;20712;-74
2022/11/27 03:25:09;;;;;;;12.70;4.03;;;6.30;99.90;;;;;;5058081;28;20028;-74
2022/11/27 03:27:46;;;;;;;9.20;4.20;;;6.30;99.90;;;;;;5059214;28;20048;-74
2022/11/27 03:30:13;;;;;;;8.63;4.35;;;6.30;99.90;;;;;;5064159;28;20373;-74
2022/11/27 03:32:38;;;;;;;11.40;4.43;;;6.30;99.90;;;;;;5043636;28;20115;-75
2022/11/27 03:35:08;;;;;;;6.63;3.83;;;6.30;99.90;;;;;;5050852;28;20041;-68
2022/11/27 03:37:34;;;;;;;8.45;3.85;;;6.30;99.90;;;;;;5058114;28;20137;-68
2022/11/27 03:40:00;;;;;;;7.50;3.83;;;6.30;99.90;;;;;;5053557;28;20469;-68
2022/11/27 03:42:44;;;;;;;10.95;4.38;;;6.30;99.90;;;;;;5053738;28;20139;-68
2022/11/27 03:45:33;;;;;;;7.90;3.85;;;6.30;99.90;;;;;;5034065;28;20110;-68
2022/11/27 03:48:24;;;;;;;9.57;3.70;;;6.30;99.90;;;;;;5025604;28;20052;-68
2022/11/27 03:51:01;;;;;;;9.30;3.78;;;6.30;99.90;;;;;;5063028;28;20067;-67
2022/11/27 03:53:36;;;;;;;8.35;3.45;;;6.30;99.90;;;;;;5070427;28;20435;-68
2022/11/27 03:56:16;;;;;;;6.38;3.53;;;6.30;99.90;;;;;;5067416;28;20479;-68
2022/11/27 03:58:57;;;;;;;7.53;3.78;;;6.30;99.90;;;;;;5069492;28;20072;-68
2022/11/27 04:01:25;;;;;;;7.50;4.20;;;6.30;99.90;;;;;;5054806;28;20040;-68
2022/11/27 04:03:51;;;;;;;10.65;4.53;;;6.30;99.90;;;;;;5050269;28;20418;-68
2022/11/27 04:06:17;;;;;;;7.85;4.15;;;6.40;99.90;;;;;;5050697;28;20048;-68
2022/11/27 04:08:45;;;;;;;5.57;3.13;;;6.30;99.90;;;;;;5061999;28;20055;-68
2022/11/27 04:11:11;;;;;;;10.00;3.88;;;6.40;99.90;;;;;;5066502;28;20503;-68
2022/11/27 04:13:36;;;;;;;7.63;3.58;;;6.30;99.90;;;;;;5070375;28;20048;-68
2022/11/27 04:16:02;;;;;;;7.90;3.47;;;6.40;99.90;;;;;;5070011;28;20422;-68
2022/11/27 04:18:29;;;;;;;5.55;3.22;;;6.30;99.90;;;;;;5070388;28;20033;-74
2022/11/27 04:20:54;;;;;;;7.25;3.53;;;6.30;99.90;;;;;;5065674;28;20061;-75
2022/11/27 04:23:20;;;;;;;7.85;3.25;;;6.30;99.90;;;;;;5061537;28;20037;-75
2022/11/27 04:25:47;;;;;;;6.18;3.15;;;6.30;99.90;;;;;;5074784;28;20113;-75
2022/11/27 04:28:13;;;;;;;7.40;3.15;;;6.30;99.90;;;;;;5051544;28;20044;-74
2022/11/27 04:30:38;;;;;;;6.72;3.08;;;6.30;99.90;;;;;;5061020;28;20496;-74
2022/11/27 04:33:04;;;;;;;5.90;3.03;;;6.30;99.90;;;;;;5065888;28;20407;-74
2022/11/27 04:35:30;;;;;;;7.32;3.20;;;6.30;99.90;;;;;;5053230;28;20041;-68
2022/11/27 04:37:56;;;;;;;8.02;3.45;;;6.30;99.90;;;;;;5052274;28;20057;-68
2022/11/27 04:40:23;;;;;;;9.23;3.60;;;6.30;99.90;;;;;;5056738;28;20048;-68
2022/11/27 04:42:49;;;;;;;9.73;3.50;;;6.30;99.90;;;;;;5052771;28;20048;-68
2022/11/27 04:45:15;;;;;;;6.30;3.22;;;6.30;99.90;;;;;;5046297;28;20044;-68
2022/11/27 04:47:41;;;;;;;6.38;3.15;;;6.30;99.90;;;;;;5051864;28;20106;-68
2022/11/27 04:50:07;;;;;;;7.43;2.90;;;6.30;99.90;;;;;;5052826;28;20480;-68
2022/11/27 04:52:32;;;;;;;6.40;2.67;;;6.20;99.90;;;;;;5049092;28;20041;-70
2022/11/27 04:54:58;;;;;;;8.25;3.30;;;6.30;99.90;;;;;;5035036;28;20033;-69
2022/11/27 04:57:24;;;;;;;8.75;3.10;;;6.30;99.90;;;;;;5052926;28;20039;-68
2022/11/27 04:59:49;;;;;;;7.13;2.83;;;6.30;99.90;;;;;;5050275;28;20075;-68
2022/11/27 05:02:15;;;;;;;6.15;2.72;;;6.30;99.90;;;;;;5070893;28;20124;-69
2022/11/27 05:04:41;;;;;;;5.82;2.72;;;6.20;99.90;;;;;;5045094;28;20500;-69
2022/11/27 05:07:06;;;;;;;10.98;3.55;;;6.20;99.90;;;;;;5066595;28;20132;-69
2022/11/27 05:09:32;;;;;;;9.10;3.47;;;6.20;99.90;;;;;;5050991;28;20045;-69
2022/11/27 05:11:58;;;;;;;9.45;3.20;;;6.30;99.90;;;;;;5059743;28;20071;-69
2022/11/27 05:14:27;;;;;;;7.13;3.42;;;6.20;99.90;;;;;;5045259;28;20052;-69
2022/11/27 05:16:56;;;;;;;8.95;3.35;;;6.20;99.90;;;;;;5059991;28;20129;-69
2022/11/27 05:19:24;;;;;;;8.23;3.30;;;6.20;99.90;;;;;;5048272;28;20049;-69
2022/11/27 05:21:50;;;;;;;7.05;2.80;;;6.20;99.90;;;;;;5051244;28;20037;-69
2022/11/27 05:24:17;;;;;;;7.40;2.95;;;6.20;99.90;;;;;;5053646;28;20025;-69
2022/11/27 05:26:43;;;;;;;7.70;2.95;;;6.20;99.90;;;;;;5059722;28;20500;-69
2022/11/27 05:29:10;;;;;;;4.45;2.45;;;6.20;99.90;;;;;;5067758;28;20052;-69
2022/11/27 05:31:36;;;;;;;4.97;2.45;;;6.10;99.90;;;;;;5050307;28;20052;-69
2022/11/27 05:34:03;;;;;;;4.93;2.40;;;6.10;99.90;;;;;;5049198;28;20048;-69
2022/11/27 05:36:30;;;;;;;6.47;2.45;;;6.10;99.90;;;;;;5051341;28;20060;-69
2022/11/27 05:38:55;;;;;;;5.20;2.60;;;6.10;99.90;;;;;;5055958;28;20510;-69
2022/11/27 05:41:22;;;;;;;7.50;2.83;;;6.10;99.90;;;;;;5052926;28;20045;-69
2022/11/27 05:43:48;;;;;;;;;;;6.10;99.90;;;;;;5060802;28;20043;-69
2022/11/27 05:46:17;;;;;;;6.50;2.53;;;6.10;99.90;;;;;;5058523;28;19920;-69
2022/11/27 05:48:43;;;;;;;8.10;2.67;;;6.10;99.90;;;;;;5066216;28;20040;-69
2022/11/27 05:51:08;;;;;;;8.23;2.75;;;6.10;99.90;;;;;;5070267;28;20047;-68
2022/11/27 05:53:34;;;;;;;6.57;3.13;;;6.10;99.90;;;;;;5072566;28;20487;-69
2022/11/27 05:56:13;;;;;;;5.38;3.03;;;6.10;99.90;;;;;;5062663;28;20091;-69
2022/11/27 05:58:40;;;;;;;4.78;2.30;;;6.10;99.90;;;;;;5052590;28;20045;-69
2022/11/27 06:01:07;;;;;;;4.55;2.67;;;6.10;99.90;;;;;;5051689;28;20032;-69
2022/11/27 06:03:33;;;;;;;6.47;2.63;;;6.10;99.90;;;;;;5072642;28;20068;-69
2022/11/27 06:06:05;;;;;;;6.53;3.08;;;6.10;99.90;;;;;;5069464;28;20049;-69
2022/11/27 06:08:31;;;;;;;5.75;2.80;;;6.10;99.90;;;;;;5069113;28;20044;-69
2022/11/27 06:10:56;;;;;;;5.60;2.78;;;6.10;99.90;;;;;;5071919;28;20052;-69
2022/11/27 06:13:22;;;;;;;6.05;2.33;;;6.10;99.90;;;;;;5063080;28;20052;-69
2022/11/27 06:15:48;;;;;;;6.32;2.80;;;6.10;99.90;;;;;;5072501;28;20087;-68
2022/11/27 06:18:13;;;;;;;5.32;2.83;;;6.10;99.90;;;;;;5071084;28;20550;-69
2022/11/27 06:20:39;;;;;;;5.97;2.60;;;6.00;99.90;;;;;;5064871;28;20070;-68
2022/11/27 06:23:04;;;;;;;8.95;2.80;;;6.00;99.90;;;;;;5052041;28;20045;-68
2022/11/27 06:25:30;;;;;;;6.45;2.38;;;6.10;99.90;;;;;;5062236;28;20044;-68
2022/11/27 06:27:56;;;;;;;4.97;2.53;;;6.00;99.90;;;;;;5049771;28;20048;-68
2022/11/27 06:30:22;;;;;;;6.50;2.83;;;6.00;99.90;;;;;;5069607;28;20045;-68
2022/11/27 06:32:49;;;;;;;6.63;2.60;;;6.00;99.90;;;;;;5044757;28;20446;-68
2022/11/27 06:35:14;;;;;;;7.22;2.70;;;6.00;99.90;;;;;;5057966;28;20539;-68
2022/11/27 06:37:40;;;;;;;6.75;2.50;;;6.00;99.90;;;;;;5060057;28;20128;-68
2022/11/27 06:40:06;;;;;;;5.05;2.50;;;6.00;99.90;;;;;;5055354;28;20036;-69
2022/11/27 06:42:32;;;;;;;6.05;2.35;;;6.00;99.90;;;;;;5053825;28;20052;-69
2022/11/27 06:44:58;;;;;;;8.43;2.80;;;6.00;99.90;;;;;;5067714;28;20040;-69
2022/11/27 06:47:23;;;;;;;8.57;3.00;;;6.10;99.90;;;;;;5059772;28;20044;-69
2022/11/27 06:49:49;;;;;;;6.85;2.90;;;6.00;99.90;;;;;;5051310;28;20048;-69
2022/11/27 06:52:15;;;;;;;7.53;2.80;;;6.00;99.90;;;;;;5071886;28;20166;-69
2022/11/27 06:54:40;;;;;;;5.13;2.22;;;6.10;99.90;;;;;;5065690;28;20040;-68
2022/11/27 06:57:06;;;;;;;4.65;2.45;;;6.00;99.90;;;;;;5049537;28;20040;-68
2022/11/27 06:59:32;;;;;;;4.32;2.40;;;6.00;99.90;;;;;;5067485;28;20037;-68
2022/11/27 07:01:57;;;;;;;5.82;2.92;;;6.00;99.90;;;;;;5067847;28;20557;-68
2022/11/27 07:04:23;;;;;;;7.35;3.00;;;6.00;99.90;;;;;;5065141;28;20056;-69
2022/11/27 07:06:49;;;;;;;7.20;2.70;;;6.00;99.90;;;;;;5052842;28;20178;-69
2022/11/27 07:09:15;;;;;;;4.38;2.38;;;6.00;99.90;;;;;;5042524;28;20052;-68
2022/11/27 07:11:41;;;;;;;4.60;2.53;;;6.00;99.90;;;;;;5034320;28;20138;-68
2022/11/27 07:14:06;;;;;;;3.95;2.25;;;6.00;99.90;;;;;;5034687;28;20368;-69
2022/11/27 07:16:34;;;;;;;6.47;2.70;;;6.00;99.90;;;;;;5051204;28;20423;-69
2022/11/27 07:19:03;;;;;;;7.20;3.03;;;6.00;99.90;;;;;;5051065;28;20075;-69
2022/11/27 07:21:29;;;;;;;5.60;2.92;;;6.00;99.90;;;;;;5062174;28;20048;-68
2022/11/27 07:23:55;;;;;;;6.63;2.38;;;6.00;99.90;;;;;;5053458;28;20128;-68
2022/11/27 07:26:24;;;;;;;5.97;2.53;;;5.90;99.90;;;;;;5052817;28;20051;-74
2022/11/27 07:28:50;;;;;;;4.55;2.13;;;6.00;99.90;;;;;;5052096;28;20384;-74
2022/11/27 07:31:28;;;;;;;6.63;3.15;;;6.00;99.90;;;;;;5054170;28;20049;-74
2022/11/27 07:33:54;;;;;;;4.80;2.78;;;5.90;99.90;;;;;;5061437;28;20048;-69
2022/11/27 07:36:28;;;;;;;5.57;2.60;;;5.90;99.90;;;;;;5063593;28;20062;-69
2022/11/27 07:38:53;;;;;;;6.35;2.95;;;5.90;99.90;;;;;;5066320;28;20051;-69
2022/11/27 07:41:20;;;;;;;6.95;3.03;;;5.90;99.90;;;;;;5054001;28;20555;-70
2022/11/27 07:43:46;;;;;;;5.82;2.85;;;6.00;99.90;;;;;;5051784;28;20087;-70
2022/11/27 07:46:15;;;;;;;5.40;2.78;;;6.00;99.90;;;;;;5054688;28;20064;-68
2022/11/27 07:48:40;;;;;;;5.63;3.15;;;6.00;99.90;;;;;;5059159;28;20119;-69
2022/11/27 07:51:11;;;;;;;5.15;2.72;;;6.00;99.90;;;;;;5040521;28;20128;-68
2022/11/27 07:53:38;;;;;;;5.10;2.60;;;6.00;99.90;;;;;;5054177;28;20403;-69
2022/11/27 07:56:09;;;;;;;4.65;2.25;;;6.00;99.90;;;;;;5049952;28;20183;-69
2022/11/27 07:58:35;;;;;;;7.10;3.15;;;6.00;99.90;;;;;;5058923;28;20041;-67
2022/11/27 08:01:06;;;;;;;5.13;2.75;;;6.00;99.90;;;;;;5055151;28;20090;-69
2022/11/27 08:03:31;;;;;;;6.15;3.05;;;6.10;99.90;;;;;;5062180;28;20047;-69
2022/11/27 08:05:57;;;;;;;9.77;3.97;;;6.10;99.90;;;;;;5058929;28;20036;-71
2022/11/27 08:08:23;;;;;;;8.30;3.50;;;6.20;99.90;;;;;;5055700;28;20068;-75
2022/11/27 08:10:48;;;;;;;8.30;4.78;;;6.20;99.90;;;;;;5061201;28;20480;-76
2022/11/27 08:13:14;;;;;;;5.63;3.20;;;6.20;99.90;;;;;;5055741;28;20068;-75
2022/11/27 08:15:40;;;;;;;5.57;3.15;;;6.20;99.90;;;;;;5063817;28;20437;-75
2022/11/27 08:18:05;;;;;;;6.95;3.30;;;6.20;99.90;;;;;;5063792;28;20041;-75
2022/11/27 08:20:31;;;;;;;4.88;3.05;;;6.30;99.90;;;;;;5065354;28;20040;-75
2022/11/27 08:22:58;;;;;;;5.47;3.28;;;6.20;99.90;;;;;;5066847;28;20067;-76
2022/11/27 08:25:23;;;;;;;;;;;6.20;99.90;;;;;;5062561;28;20045;-75
2022/11/27 08:27:49;;;;;;;6.65;3.35;;;6.20;99.90;;;;;;5046242;28;19943;-76
2022/11/27 08:30:15;;;;;;;4.82;2.92;;;6.20;99.90;;;;;;5059783;28;20033;-75
2022/11/27 08:32:42;;;;;;;5.40;3.08;;;6.20;99.90;;;;;;5054214;28;20113;-76
2022/11/27 08:35:09;;;;;;;4.93;2.50;;;6.20;99.90;;;;;;5058208;28;20045;-75
2022/11/27 08:37:35;;;;;;;5.15;2.60;;;6.20;99.90;;;;;;5055862;28;20528;-74
2022/11/27 08:40:01;;;;;;;5.30;2.78;;;6.20;99.90;;;;;;5075792;28;20056;-74
2022/11/27 08:42:26;;;;;;;5.85;3.35;;;6.20;99.90;;;;;;5063174;28;20053;-73
2022/11/27 08:44:52;;;;;;;5.72;3.05;;;6.20;99.90;;;;;;5057876;28;20047;-77
2022/11/27 08:47:18;;;;;;;5.63;2.97;;;6.20;99.90;;;;;;5057411;28;20048;-76
2022/11/27 08:49:44;;;;;;;6.00;3.40;;;6.20;99.90;;;;;;5071346;28;20480;-77
2022/11/27 08:52:10;;;;;;;6.28;3.38;;;6.20;99.90;;;;;;5051759;28;20045;-77
2022/11/27 08:54:36;;;;;;;6.32;3.00;;;6.20;99.90;;;;;;5061326;28;20563;-76
2022/11/27 08:57:02;;;;;;;8.02;3.10;;;6.30;99.90;;;;;;5068056;28;20072;-76
2022/11/27 08:59:28;;;;;;;;;;;6.20;99.90;;;;;;5069373;28;20055;-77
2022/11/27 09:01:54;;;;;;;5.60;3.15;;;6.20;99.90;;;;;;5037462;28;19917;-78
2022/11/27 09:04:19;;;;;;;6.72;3.40;;;6.30;99.90;;;;;;5051052;28;20045;-77
2022/11/27 09:06:47;;;;;;;6.68;3.63;;;6.30;99.90;;;;;;5052088;28;20075;-76
2022/11/27 09:09:13;;;;;;;7.90;3.45;;;6.20;99.90;;;;;;5050953;28;20052;-76
2022/11/27 09:11:40;;;;;;;5.97;3.42;;;6.20;99.90;;;;;;5052343;28;20405;-71
2022/11/27 09:14:07;;;;;;;6.57;3.45;;;6.30;99.90;;;;;;5037452;28;20040;-71
2022/11/27 09:16:34;;;;;;;6.35;3.17;;;6.30;99.90;;;;;;5039964;28;20147;-71
2022/11/27 09:18:59;;;;;;;5.75;3.50;;;6.30;99.90;;;;;;5036787;28;20559;-72
2022/11/27 09:21:27;;;;;;;5.15;3.28;;;6.30;99.90;;;;;;5053270;28;20078;-70
2022/11/27 09:23:59;;;;;;;5.13;3.15;;;6.30;99.90;;;;;;5054585;28;20051;-72
2022/11/27 09:26:27;;;;;;;7.57;3.85;;;6.30;99.90;;;;;;5053490;28;20063;-72
2022/11/27 09:28:54;;;;;;;9.18;4.57;;;6.30;99.90;;;;;;5056040;28;20070;-72
2022/11/27 09:31:21;;;;;;;7.53;3.90;;;6.30;99.90;;;;;;5065636;28;20061;-71
2022/11/27 09:33:47;;;;;;;7.15;4.15;;;6.20;99.90;;;;;;5064828;28;20056;-72
2022/11/27 09:36:24;;;;;;;7.38;3.83;;;6.30;99.90;;;;;;5056102;28;20098;-71
2022/11/27 09:38:51;;;;;;;5.93;3.28;;;6.20;99.90;;;;;;5055979;28;20041;-72
2022/11/27 09:41:42;;;;;;;6.88;3.47;;;6.30;99.90;;;;;;5055823;28;20036;-71
2022/11/27 09:44:26;;;;;;;5.28;3.13;;;6.20;99.90;;;;;;5054870;28;20837;-72
2022/11/27 09:46:53;;;;;;;6.93;3.58;;;6.20;99.90;;;;;;5063094;28;20036;-71
2022/11/27 09:49:27;;;;;;;4.68;3.00;;;6.20;99.90;;;;;;5061262;28;20055;-72
2022/11/27 09:52:05;;;;;;;6.05;2.97;;;6.30;99.90;;;;;;5064756;28;20158;-72
2022/11/27 09:54:53;;;;;;;5.80;3.47;;;6.20;99.90;;;;;;5044252;28;20098;-73
2022/11/27 09:57:34;;;;;;;4.22;2.58;;;6.20;99.90;;;;;;5063324;28;20134;-71
2022/11/27 10:00:21;;;;;;;5.97;3.42;;;6.20;99.90;;;;;;5058135;28;20041;-71
2022/11/27 10:02:47;;;;;;;5.65;3.20;;;6.20;99.90;;;;;;5042913;28;20096;-72
2022/11/27 10:05:38;;;;;;;4.97;2.90;;;6.20;99.90;;;;;;5067145;28;20036;-71
2022/11/27 10:08:22;;;;;;;4.65;2.90;;;6.20;99.90;;;;;;5048071;28;20040;-71
2022/11/27 10:10:55;;;;;;;5.68;3.50;;;6.20;99.90;;;;;;5067953;28;20163;-71
2022/11/27 10:13:35;;;;;;;6.93;3.78;;;6.20;99.90;;;;;;5051893;28;20041;-70
2022/11/27 10:16:22;;;;;;;6.38;3.35;;;6.20;99.90;;;;;;5054748;28;20064;-71
2022/11/27 10:18:59;;;;;;;7.38;4.25;;;6.20;99.90;;;;;;5053571;28;20080;-71
2022/11/27 10:22:01;;;;;;;6.07;4.03;;;6.20;99.90;;;;;;5035462;28;20480;-70
2022/11/27 10:24:40;;;;;;;7.78;4.00;;;6.20;99.90;;;;;;5001681;28;20041;-72
2022/11/27 10:27:28;;;;;;;4.75;3.17;;;6.20;99.90;;;;;;5070073;28;20051;-71
2022/11/27 10:29:55;;;;;;;8.85;4.50;;;6.20;99.90;;;;;;5073205;28;20033;-71
2022/11/27 10:32:32;;;;;;;6.93;4.20;;;6.20;99.90;;;;;;5071976;28;20131;-70
2022/11/27 10:35:08;;;;;;;8.02;4.35;;;6.20;99.90;;;;;;5053458;28;20045;-71
2022/11/27 10:37:40;;;;;;;7.97;4.88;;;6.20;99.90;;;;;;5059891;28;20222;-70
2022/11/27 10:40:10;;;;;;;5.90;3.60;;;6.10;99.90;;;;;;5064619;28;20121;-70
2022/11/27 10:42:42;;;;;;;6.53;3.58;;;6.20;99.90;;;;;;5051582;28;20049;-71
2022/11/27 10:45:35;;;;;;;6.18;4.18;;;6.20;99.90;;;;;;5050903;28;20049;-70
2022/11/27 10:48:01;;;;;;;7.35;4.28;;;6.20;99.90;;;;;;5050413;28;20037;-70
2022/11/27 10:50:27;;;;;;;5.80;3.85;;;6.20;99.90;;;;;;5039484;28;20059;-71
2022/11/27 10:52:58;;;;;;;7.40;4.47;;;6.20;99.90;;;;;;5057229;28;20483;-71
2022/11/27 10:55:52;;;;;;;5.95;4.18;;;6.20;99.90;;;;;;5057501;28;20400;-72
2022/11/27 10:58:33;;;;;;;5.43;3.92;;;6.20;99.90;;;;;;5019458;28;20594;-71
2022/11/27 11:01:05;;;;;;;6.63;4.07;;;6.30;99.90;;;;;;5053864;28;20146;-71
2022/11/27 11:03:32;;;;;;;7.78;4.40;;;6.30;99.90;;;;;;5056759;28;20090;-71
2022/11/27 11:06:01;;;;;;;7.90;4.68;;;6.30;99.90;;;;;;5056791;28;20523;-71
2022/11/27 11:08:28;;;;;;;6.50;4.57;;;6.30;99.90;;;;;;5053129;28;20045;-70
2022/11/27 11:11:03;;;;;;;7.88;4.40;;;6.30;99.90;;;;;;5056751;28;20090;-71
2022/11/27 11:13:32;;;;;;;9.25;4.80;;;6.30;99.90;;;;;;5055344;28;20399;-71
2022/11/27 11:16:29;;;;;;;7.95;4.72;;;6.30;99.90;;;;;;5053368;28;20036;-71
2022/11/27 11:18:56;;;;;;;9.75;4.68;;;6.30;99.90;;;;;;5032998;28;20044;-70
2022/11/27 11:21:31;;;;;;;9.82;4.68;;;6.30;99.90;;;;;;5051564;28;20041;-71
2022/11/27 11:23:58;;;;;;;6.05;3.60;;;6.30;99.90;;;;;;5057687;28;20407;-74
2022/11/27 11:26:58;;;;;;;8.35;5.15;;;6.30;99.90;;;;;;5041848;28;20124;-76
2022/11/27 11:29:39;;;;;;;10.77;5.28;;;6.30;99.90;;;;;;5058450;28;20063;-74
2022/11/27 11:32:20;;;;;;;10.00;4.50;;;6.40;99.90;;;;;;5060408;28;20128;-74
2022/11/27 11:34:51;;;;;;;9.52;5.07;;;6.40;99.90;;;;;;5066598;28;20119;-74
2022/11/27 11:37:32;;;;;;;10.18;5.10;;;6.40;99.90;;;;;;5054126;28;20067;-74
2022/11/27 11:40:02;;;;;;;7.50;4.55;;;6.40;99.90;;;;;;5070894;28;20052;-74
2022/11/27 11:42:31;;;;;;;9.00;4.50;;;6.40;99.90;;;;;;5061224;28;20044;-74
2022/11/27 11:45:23;;;;;;;6.25;4.30;;;6.40;99.90;;;;;;5047867;28;20506;-74
2022/11/27 11:47:54;;;;;;;10.35;5.03;;;6.40;99.90;;;;;;5051173;28;20067;-74
2022/11/27 11:50:25;;;;;;;8.30;4.65;;;6.40;99.90;;;;;;5050892;28;20048;-75
2022/11/27 11:52:57;;;;;;;8.15;4.60;;;6.40;99.90;;;;;;5051110;28;20404;-74
2022/11/27 11:55:34;;;;;;;8.07;5.03;;;6.40;99.90;;;;;;5050807;28;20080;-74
2022/11/27 11:58:25;;;;;;;8.10;5.03;;;6.40;99.90;;;;;;5050716;28;20072;-73
2022/11/27 12:01:04;;;;;;;6.93;4.32;;;6.50;99.90;;;;;;5053110;28;20044;-75
2022/11/27 12:03:52;;;;;;;7.57;4.40;;;6.50;99.90;;;;;;5060048;28;20060;-76
2022/11/27 12:06:17;;;;;;;9.27;5.20;;;6.40;99.90;;;;;;5055945;28;20150;-75
2022/11/27 12:08:59;;;;;;;7.93;4.67;;;6.40;99.90;;;;;;5050007;28;20501;-75
2022/11/27 12:12:24;;;;;;;6.80;3.95;;;6.40;99.90;;;;;;5054829;28;20304;-75
2022/11/27 12:14:54;;;;;;;8.07;4.38;;;6.50;99.90;;;;;;5059248;28;20109;-75
2022/11/27 12:17:47;;;;;;;7.28;3.75;;;6.50;99.90;;;;;;5060827;28;20052;-74
2022/11/27 12:20:17;;;;;;;6.25;3.90;;;6.50;99.90;;;;;;5062178;28;20044;-76
2022/11/27 12:23:03;;;;;;;7.60;4.30;;;6.50;99.90;;;;;;5058923;28;20106;-74
2022/11/27 12:25:36;;;;;;;5.45;3.25;;;6.50;99.90;;;;;;5072615;28;20052;-74
2022/11/27 12:28:30;;;;;;;7.82;4.30;;;6.50;99.90;;;;;;5080186;28;20055;-74
2022/11/27 12:31:07;;;;;;;7.38;4.13;;;6.40;99.90;;;;;;5068127;28;20048;-73
2022/11/27 12:34:01;;;;;;;6.30;3.72;;;6.50;99.90;;;;;;5084492;28;20053;-73
2022/11/27 12:37:08;;;;;;;8.27;4.40;;;6.50;99.90;;;;;;5086128;28;20066;-74
2022/11/27 12:39:51;;;;;;;6.40;4.03;;;6.50;99.90;;;;;;5056274;28;20049;-73
2022/11/27 12:42:22;;;;;;;6.05;3.75;;;6.50;99.90;;;;;;5058526;28;20044;-73
2022/11/27 12:44:58;;;;;;;7.18;4.40;;;6.50;99.90;;;;;;5083155;28;20077;-73
2022/11/27 12:47:34;;;;;;;8.48;4.63;;;6.50;99.90;;;;;;5066787;28;20041;-74
2022/11/27 12:50:33;;;;;;;7.05;4.03;;;6.60;99.90;;;;;;5058902;28;20044;-73
2022/11/27 12:53:10;;;;;;;8.55;4.22;;;6.50;99.90;;;;;;5010058;28;20137;-73
2022/11/27 12:55:39;;;;;;;7.22;4.00;;;6.50;99.90;;;;;;5068037;28;20049;-74
2022/11/27 12:58:14;;;;;;;6.35;4.30;;;6.50;99.90;;;;;;5050499;28;20059;-73
2022/11/27 13:00:42;;;;;;;5.70;3.88;;;6.50;99.90;;;;;;5054258;28;20047;-73
2022/11/27 13:03:14;;;;;;;8.25;4.07;;;6.50;99.90;;;;;;5061679;28;20048;-74
2022/11/27 13:05:52;;;;;;;5.75;4.07;;;6.50;99.90;;;;;;5062415;28;20045;-73
2022/11/27 13:08:42;;;;;;;8.63;4.75;;;6.50;99.90;;;;;;5058700;28;20151;-74
2022/11/27 13:11:12;;;;;;;7.93;4.30;;;6.50;99.90;;;;;;5052946;28;20135;-72
2022/11/27 13:13:43;;;;;;;6.13;4.03;;;6.40;99.90;;;;;;5054286;28;20045;-72
2022/11/27 13:16:37;;;;;;;8.02;3.90;;;6.50;99.90;;;;;;5054795;28;20055;-73
2022/11/27 13:19:13;;;;;;;6.82;3.90;;;6.50;99.90;;;;;;5062589;28;20052;-75